Quiring, Minnesota
Current Conditions -  °F | °C
As of 9:34 AM on Thursday 23 Oct 2014 (Local Time) from KVWU Reporting Station
Clear Clear  
Wind Chill: 52°   Ceiling: Unl
Heat Index: 52°   Visibility: 10mi
Dew Point: 48°   Wind: 0mph
Humidity: 88%   Direction: NA
Pressure: 29.88"   Gusts: NA
Location:  47.7306°N, 94.3762°W
Report Text: KVWU 231434Z AUTO 00000KT 10SM CLR 11/09 A2988 RMK AO2
Loading
Personal Weather Stations






























Interactive Weather Map
Tropical Storm Tracking
New forecast layout! Learn more

10-Day Weather Forecast

Advertisements
Track Severe Weather on mobile